Sjenica, Serbia
Current Conditions -  °F | °C
As of 6:30 PM on Sunday 23 Nov 2014 (Local Time) from LYUZ Reporting Station
Clear Clear  
Wind Chill: 34°   Ceiling: Unl
Heat Index: 34°   Visibility: 4mi
Dew Point: 34°   Wind: 0mph
Humidity: 100%   Direction: NA
Pressure: 30.3"   Gusts: NA
Location:  43.27°N, 20°E
Report Text: LYUZ 231630Z 00000KT 6000 NSC 01/01 Q1026
Loading
Personal Weather Stations






























Interactive Weather Map New forecast layout! Learn more

10-Day Weather Forecast

Advertisements
Track Severe Weather on mobile